Time;durP1;ratioP1;P1;durP2;ratioP2;P2;SDS_P1;SDS_P2;PMS_P1;PMS_P2;Temp;Humidity;BMP_temperature;BMP_pressure;BME280_temperature;BME280_humidity;BME280_pressure;Samples;Min_cycle;Max_cycle;Signal;HPM_P1;HPM_P2
2022/03/28 00:02:08;;;;;;;9.90;7.83;;;;;3.80;97829.00;;;;5070470;28;20438;-88
2022/03/28 00:04:57;;;;;;;10.27;7.70;;;;;4.40;97820.00;;;;5060456;28;20969;-86
2022/03/28 00:07:48;;;;;;;10.17;8.00;;;;;4.80;97830.00;;;;5069425;28;20445;-86
2022/03/28 00:10:37;;;;;;;9.10;7.47;;;;;4.70;97828.00;;;;5070056;28;20431;-88
2022/03/28 00:13:26;;;;;;;13.40;8.87;;;;;4.60;97820.00;;;;5070985;28;20859;-88
2022/03/28 00:16:15;;;;;;;9.87;7.57;;;;;4.10;97811.00;;;;5069520;28;20442;-87
2022/03/28 00:19:05;;;;;;;12.93;6.97;;;;;4.20;97801.00;;;;5070723;28;20429;-87
2022/03/28 00:21:54;;;;;;;10.97;8.57;;;;;4.00;97811.00;;;;5070813;28;20834;-88
2022/03/28 00:24:44;;;;;;;10.87;7.77;;;;;4.20;97810.00;;;;5070719;28;20497;-88
2022/03/28 00:27:33;;;;;;;8.60;6.87;;;;;4.00;97791.00;;;;5076906;28;20439;-88
2022/03/28 00:30:22;;;;;;;10.60;8.27;;;;;4.40;97801.00;;;;5088440;28;20450;-88
2022/03/28 00:33:11;;;;;;;9.27;7.33;;;;;4.50;97800.00;;;;5068574;28;20463;-87
2022/03/28 00:36:00;;;;;;;12.60;7.00;;;;;4.60;97803.00;;;;5072580;28;20430;-89
2022/03/28 00:38:51;;;;;;;12.33;8.00;;;;;4.60;97793.00;;;;5073943;28;20449;-87
2022/03/28 00:41:41;;;;;;;13.40;8.20;;;;;4.40;97795.00;;;;5073040;28;20446;-87
2022/03/28 00:44:31;;;;;;;11.47;8.03;;;;;3.70;97786.00;;;;5073871;28;20458;-88
2022/03/28 00:47:20;;;;;;;10.17;7.23;;;;;3.80;97786.00;;;;5065999;28;20426;-86
2022/03/28 00:50:10;;;;;;;9.97;7.47;;;;;4.20;97775.00;;;;5072379;28;20446;-87
2022/03/28 00:53:00;;;;;;;7.73;6.93;;;;;4.50;97780.00;;;;5066419;28;20429;-88
2022/03/28 00:55:49;;;;;;;9.47;8.33;;;;;4.70;97775.00;;;;5073178;28;20430;-89
2022/03/28 00:58:39;;;;;;;6.73;6.13;;;;;4.40;97775.00;;;;5073477;28;20430;-88
2022/03/28 01:01:29;;;;;;;10.77;8.00;;;;;3.80;97766.00;;;;5071528;28;20426;-87
2022/03/28 01:04:18;;;;;;;13.07;8.10;;;;;3.60;97756.00;;;;5072603;28;20450;-88
2022/03/28 01:07:08;;;;;;;10.47;8.43;;;;;3.60;97754.00;;;;5069888;28;20478;-87
2022/03/28 01:09:59;;;;;;;10.57;7.17;;;;;4.00;97758.00;;;;5065386;28;20454;-88
2022/03/28 01:12:48;;;;;;;9.53;7.73;;;;;4.00;97750.00;;;;5071294;28;20826;-89
2022/03/28 01:15:40;;;;;;;8.83;7.23;;;;;3.60;97752.00;;;;5071266;28;21117;-87
2022/03/28 01:18:30;;;;;;;10.80;7.27;;;;;3.70;97741.00;;;;5061151;28;20853;-87
2022/03/28 01:21:20;;;;;;;11.37;7.10;;;;;3.70;97739.00;;;;5070806;28;20433;-87
2022/03/28 01:24:09;;;;;;;11.73;6.50;;;;;3.60;97738.00;;;;5071597;28;20445;-87
2022/03/28 01:26:59;;;;;;;7.50;6.43;;;;;3.50;97732.00;;;;5074130;28;20466;-87
2022/03/28 01:29:48;;;;;;;10.60;6.93;;;;;3.40;97742.00;;;;5073840;28;20442;-89
2022/03/28 01:32:37;;;;;;;11.63;7.87;;;;;3.20;97730.00;;;;5063722;28;20431;-87
2022/03/28 01:35:31;;;;;;;9.67;7.80;;;;;3.20;97724.00;;;;5074411;28;20446;-87
2022/03/28 01:38:22;;;;;;;9.60;6.93;;;;;3.10;97729.00;;;;5067598;28;20442;-88
2022/03/28 01:41:11;;;;;;;8.97;8.03;;;;;3.30;97726.00;;;;5071287;28;20430;-86
2022/03/28 01:44:00;;;;;;;9.43;7.50;;;;;3.50;97720.00;;;;5070815;28;20473;-88
2022/03/28 01:46:50;;;;;;;11.87;7.60;;;;;3.30;97711.00;;;;5073863;28;21089;-88
2022/03/28 01:49:39;;;;;;;9.17;7.07;;;;;3.00;97704.00;;;;5074158;28;20442;-88
2022/03/28 01:52:28;;;;;;;10.43;6.83;;;;;3.00;97712.00;;;;5073100;28;20438;-87
2022/03/28 01:55:19;;;;;;;9.20;7.07;;;;;3.00;97708.00;;;;5073528;28;20438;-87
2022/03/28 01:58:08;;;;;;;9.13;7.10;;;;;3.30;97702.00;;;;5072851;28;20826;-86
2022/03/28 02:00:57;;;;;;;10.53;7.70;;;;;3.50;97711.00;;;;5071503;28;20492;-87
2022/03/28 02:03:46;;;;;;;12.40;8.17;;;;;3.50;97701.00;;;;5085136;28;20946;-86
2022/03/28 02:06:36;;;;;;;9.43;7.57;;;;;3.20;97701.00;;;;5079232;28;20474;-87
2022/03/28 02:09:25;;;;;;;9.27;7.30;;;;;3.20;97691.00;;;;5075772;28;20449;-88
2022/03/28 02:12:15;;;;;;;10.67;8.23;;;;;3.40;97697.00;;;;5075701;28;21051;-86
2022/03/28 02:15:06;;;;;;;8.43;7.30;;;;;3.40;97706.00;;;;5074619;28;20446;-87
2022/03/28 02:17:55;;;;;;;10.63;7.67;;;;;3.40;97697.00;;;;5070071;28;20827;-88
2022/03/28 02:20:44;;;;;;;11.70;7.67;;;;;3.30;97689.00;;;;5074693;28;20979;-87
2022/03/28 02:23:33;;;;;;;13.20;8.30;;;;;3.50;97694.00;;;;5075106;28;20536;-86
2022/03/28 02:26:22;;;;;;;10.73;7.23;;;;;3.40;97691.00;;;;5066069;28;20471;-87
2022/03/28 02:29:13;;;;;;;13.93;8.70;;;;;3.30;97676.00;;;;5064504;28;20426;-86
2022/03/28 02:32:02;;;;;;;7.73;6.97;;;;;2.90;97688.00;;;;5072834;28;20427;-87
2022/03/28 02:34:51;;;;;;;9.17;7.30;;;;;2.80;97672.00;;;;5069367;28;20457;-88
2022/03/28 02:37:40;;;;;;;9.07;8.17;;;;;2.60;97673.00;;;;5073615;28;20798;-87
2022/03/28 02:40:30;;;;;;;9.57;7.90;;;;;2.50;97674.00;;;;5072479;28;20438;-87
2022/03/28 02:43:21;;;;;;;8.87;7.87;;;;;2.80;97668.00;;;;5073430;28;20459;-87
2022/03/28 02:46:12;;;;;;;10.87;8.97;;;;;2.70;97674.00;;;;5073722;28;20485;-87
2022/03/28 02:49:01;;;;;;;12.57;8.00;;;;;2.80;97672.00;;;;5067421;28;20431;-86
2022/03/28 02:51:50;;;;;;;11.37;8.33;;;;;2.70;97668.00;;;;5065037;28;20443;-87
2022/03/28 02:54:39;;;;;;;9.80;7.57;;;;;2.70;97670.00;;;;5073521;28;20455;-87
2022/03/28 02:57:28;;;;;;;8.97;7.47;;;;;2.80;97674.00;;;;5071841;28;20791;-86
2022/03/28 03:00:17;;;;;;;10.70;8.73;;;;;2.80;97676.00;;;;5071460;28;20442;-86
2022/03/28 03:03:08;;;;;;;13.60;8.53;;;;;2.90;97668.00;;;;5069766;28;20449;-88
2022/03/28 03:05:57;;;;;;;9.37;7.67;;;;;2.50;97657.00;;;;5073026;28;20435;-88
2022/03/28 03:08:46;;;;;;;8.20;6.43;;;;;2.50;97655.00;;;;5073210;28;20446;-88
2022/03/28 03:11:35;;;;;;;11.63;9.87;;;;;2.50;97655.00;;;;5073866;28;20811;-87
2022/03/28 03:14:24;;;;;;;11.60;8.47;;;;;2.50;97658.00;;;;5065877;28;20602;-87
2022/03/28 03:17:13;;;;;;;9.53;7.50;;;;;2.30;97655.00;;;;5073518;28;20426;-89
2022/03/28 03:20:04;;;;;;;10.67;7.30;;;;;2.40;97653.00;;;;5071654;28;20423;-88
2022/03/28 03:22:53;;;;;;;10.00;7.20;;;;;2.40;97653.00;;;;5071826;28;20959;-86
2022/03/28 03:25:42;;;;;;;9.30;7.83;;;;;2.70;97657.00;;;;5071917;28;20446;-86
2022/03/28 03:28:31;;;;;;;9.50;8.37;;;;;2.90;97656.00;;;;5069449;28;20442;-86
2022/03/28 03:31:20;;;;;;;13.30;8.13;;;;;2.60;97644.00;;;;5073421;28;20442;-88
2022/03/28 03:34:09;;;;;;;10.93;8.00;;;;;2.60;97642.00;;;;5065512;28;20991;-86
2022/03/28 03:37:00;;;;;;;9.63;8.17;;;;;2.30;97640.00;;;;5071999;28;20415;-86
2022/03/28 03:39:49;;;;;;;8.43;6.50;;;;;1.70;97638.00;;;;5069964;28;20815;-86
2022/03/28 03:42:38;;;;;;;10.60;7.70;;;;;1.70;97640.00;;;;5074088;28;20445;-88
2022/03/28 03:45:27;;;;;;;11.67;7.83;;;;;1.80;97639.00;;;;5069336;28;20812;-86
2022/03/28 03:48:16;;;;;;;11.70;7.93;;;;;1.90;97641.00;;;;5069989;28;20466;-86
2022/03/28 03:51:05;;;;;;;8.37;7.27;;;;;1.90;97638.00;;;;5070515;28;20427;-87
2022/03/28 03:53:56;;;;;;;11.20;8.57;;;;;1.90;97637.00;;;;5071581;28;21015;-87
2022/03/28 03:56:45;;;;;;;10.70;7.53;;;;;2.00;97625.00;;;;5064751;28;20953;-86
2022/03/28 03:59:34;;;;;;;8.73;5.63;;;;;1.80;97625.00;;;;5069058;28;20434;-88
2022/03/28 04:02:23;;;;;;;8.00;7.20;;;;;1.90;97640.00;;;;5068400;28;20465;-86
2022/03/28 04:05:13;;;;;;;8.80;6.47;;;;;1.90;97633.00;;;;5068362;28;20432;-86
2022/03/28 04:08:02;;;;;;;7.40;6.47;;;;;2.00;97635.00;;;;5066342;28;20855;-86
2022/03/28 04:10:53;;;;;;;8.77;6.53;;;;;1.20;97631.00;;;;5067019;28;20423;-86
2022/03/28 04:13:42;;;;;;;12.03;8.50;;;;;1.30;97624.00;;;;5070450;28;21261;-86
2022/03/28 04:16:31;;;;;;;6.97;5.87;;;;;1.40;97636.00;;;;5068420;28;20483;-86
2022/03/28 04:19:20;;;;;;;12.00;8.47;;;;;1.40;97628.00;;;;5067140;28;20434;-87
2022/03/28 04:22:09;;;;;;;8.03;7.13;;;;;1.40;97628.00;;;;5071366;28;20446;-87
2022/03/28 04:24:59;;;;;;;9.57;6.73;;;;;1.50;97627.00;;;;5071130;28;20515;-87
2022/03/28 04:27:49;;;;;;;11.80;7.70;;;;;1.70;97627.00;;;;5067004;28;20865;-85
2022/03/28 04:30:38;;;;;;;9.43;7.80;;;;;1.70;97621.00;;;;5070259;28;20430;-85
2022/03/28 04:33:27;;;;;;;12.57;9.53;;;;;1.80;97627.00;;;;5066048;28;20984;-87
2022/03/28 04:36:17;;;;;;;9.13;8.10;;;;;1.80;97636.00;;;;5067321;28;20426;-88
2022/03/28 04:39:06;;;;;;;14.50;9.33;;;;;1.70;97628.00;;;;5068107;28;20422;-87
2022/03/28 04:41:55;;;;;;;12.80;8.60;;;;;2.10;97633.00;;;;5056829;28;20438;-87
2022/03/28 04:44:46;;;;;;;12.27;8.00;;;;;2.20;97631.00;;;;5064839;28;20454;-86
2022/03/28 04:47:37;;;;;;;15.97;11.00;;;;;2.20;97625.00;;;;5068127;28;20469;-87
2022/03/28 04:50:26;;;;;;;16.33;8.60;;;;;1.90;97631.00;;;;5068493;28;20823;-86
2022/03/28 04:53:17;;;;;;;13.20;8.60;;;;;1.80;97622.00;;;;5066653;28;20454;-86
2022/03/28 04:56:06;;;;;;;12.97;7.70;;;;;1.30;97627.00;;;;5068329;28;20438;-87
2022/03/28 04:58:55;;;;;;;12.23;7.67;;;;;0.90;97619.00;;;;5064669;28;20422;-87
2022/03/28 05:01:45;;;;;;;11.10;8.07;;;;;1.00;97613.00;;;;5067889;28;20439;-87
2022/03/28 05:04:34;;;;;;;10.43;7.73;;;;;1.10;97607.00;;;;5071035;28;20450;-87
2022/03/28 05:07:24;;;;;;;15.30;9.07;;;;;1.40;97625.00;;;;5069968;28;20470;-86
2022/03/28 05:10:13;;;;;;;10.83;8.43;;;;;1.60;97619.00;;;;5068597;28;20813;-86
2022/03/28 05:13:02;;;;;;;13.77;9.67;;;;;1.80;97625.00;;;;5068658;28;20418;-86
2022/03/28 05:15:51;;;;;;;12.37;10.00;;;;;2.20;97628.00;;;;5066251;28;20421;-86
2022/03/28 05:18:42;;;;;;;22.40;10.73;;;;;2.20;97614.00;;;;5072162;28;20944;-86
2022/03/28 05:21:31;;;;;;;19.20;11.27;;;;;2.30;97618.00;;;;5073468;28;20991;-86
2022/03/28 05:24:21;;;;;;;17.33;10.97;;;;;1.80;97616.00;;;;5060644;28;20579;-87
2022/03/28 05:27:10;;;;;;;7.20;5.70;;;;;1.80;97611.00;;;;5060386;28;20453;-88
2022/03/28 05:30:00;;;;;;;15.67;9.90;;;;;1.90;97620.00;;;;5063911;28;20838;-87
2022/03/28 05:32:49;;;;;;;12.70;7.97;;;;;1.90;97614.00;;;;5059512;28;20446;-87
2022/03/28 05:35:40;;;;;;;14.10;10.80;;;;;2.30;97622.00;;;;5054911;28;20449;-87
2022/03/28 05:38:29;;;;;;;12.43;8.83;;;;;2.40;97615.00;;;;5052882;28;20435;-86
2022/03/28 05:41:18;;;;;;;20.97;8.87;;;;;2.30;97610.00;;;;5059982;28;20952;-86
2022/03/28 05:44:07;;;;;;;14.87;10.00;;;;;2.70;97627.00;;;;5056074;28;20469;-86
2022/03/28 05:46:57;;;;;;;14.67;9.27;;;;;2.70;97626.00;;;;5051332;28;20435;-87
2022/03/28 05:49:46;;;;;;;12.57;9.37;;;;;2.30;97605.00;;;;5060769;28;20466;-87
2022/03/28 05:52:37;;;;;;;8.53;6.97;;;;;1.90;97619.00;;;;5059993;28;20464;-87
2022/03/28 05:55:26;;;;;;;9.93;8.37;;;;;2.30;97619.00;;;;5066785;28;20500;-87
2022/03/28 05:58:15;;;;;;;12.33;9.30;;;;;2.40;97617.00;;;;5056745;28;20823;-87
2022/03/28 06:01:04;;;;;;;12.57;8.67;;;;;2.50;97615.00;;;;5056270;28;20443;-88
2022/03/28 06:03:53;;;;;;;13.57;9.60;;;;;2.90;97607.00;;;;5056886;28;20479;-88
2022/03/28 06:06:43;;;;;;;14.00;10.20;;;;;3.20;97615.00;;;;5053007;28;20810;-87
2022/03/28 06:09:33;;;;;;;16.20;10.00;;;;;2.80;97613.00;;;;5059195;28;20508;-89
2022/03/28 06:12:23;;;;;;;13.67;9.23;;;;;3.20;97611.00;;;;5063790;28;20435;-87
2022/03/28 06:15:12;;;;;;;12.50;10.20;;;;;3.40;97612.00;;;;5057701;28;20439;-88
2022/03/28 06:18:01;;;;;;;14.57;10.67;;;;;3.60;97604.00;;;;5054849;28;20442;-87
2022/03/28 06:20:50;;;;;;;14.83;9.00;;;;;3.40;97593.00;;;;5053456;28;20825;-88
2022/03/28 06:23:39;;;;;;;13.07;9.60;;;;;3.50;97591.00;;;;5049356;28;20593;-87
2022/03/28 06:26:30;;;;;;;11.77;8.10;;;;;3.70;97598.00;;;;5053116;28;20446;-87
2022/03/28 06:29:19;;;;;;;15.77;10.67;;;;;3.70;97595.00;;;;5053474;28;20996;-87
2022/03/28 06:32:09;;;;;;;12.63;11.03;;;;;4.10;97594.00;;;;5053901;28;20818;-87
2022/03/28 06:34:58;;;;;;;13.20;10.23;;;;;4.20;97589.00;;;;5050194;28;20886;-88
2022/03/28 06:37:50;;;;;;;12.27;9.60;;;;;4.60;97587.00;;;;5060267;28;20442;-87
2022/03/28 06:40:39;;;;;;;12.20;10.27;;;;;5.10;97587.00;;;;5052387;28;20466;-87
2022/03/28 06:43:29;;;;;;;18.87;11.80;;;;;5.40;97576.00;;;;5053854;28;20471;-87
2022/03/28 06:46:20;;;;;;;16.77;11.83;;;;;5.60;97585.00;;;;5053889;28;20803;-87
2022/03/28 06:49:09;;;;;;;19.50;10.37;;;;;5.80;97581.00;;;;5054169;28;20924;-86
2022/03/28 06:51:58;;;;;;;19.27;10.80;;;;;6.20;97581.00;;;;5056207;28;20447;-86
2022/03/28 06:54:47;;;;;;;13.90;10.00;;;;;6.40;97584.00;;;;5056778;28;20463;-87
2022/03/28 06:57:36;;;;;;;14.10;11.47;;;;;6.60;97586.00;;;;5055164;28;20462;-87
2022/03/28 07:00:27;;;;;;;16.53;11.50;;;;;6.70;97578.00;;;;5063120;28;20957;-87
2022/03/28 07:03:16;;;;;;;17.67;10.60;;;;;7.00;97584.00;;;;5054249;28;20603;-86
2022/03/28 07:06:05;;;;;;;18.20;12.33;;;;;7.50;97581.00;;;;5053225;28;20208;-88
2022/03/28 07:08:54;;;;;;;18.00;12.57;;;;;7.60;97588.00;;;;5059304;28;20446;-87
2022/03/28 07:11:43;;;;;;;23.73;12.43;;;;;7.50;97569.00;;;;5055968;28;20200;-88
2022/03/28 07:14:32;;;;;;;14.53;11.57;;;;;7.60;97575.00;;;;5055871;28;20227;-86
2022/03/28 07:17:23;;;;;;;16.70;12.23;;;;;7.90;97579.00;;;;5052832;28;20718;-86
2022/03/28 07:20:12;;;;;;;13.70;11.30;;;;;8.30;97582.00;;;;5055746;28;20200;-87
2022/03/28 07:23:02;;;;;;;23.10;12.30;;;;;8.80;97591.00;;;;5063843;28;20200;-88
2022/03/28 07:25:51;;;;;;;11.80;9.20;;;;;8.70;97579.00;;;;5054333;28;20637;-86
2022/03/28 07:28:40;;;;;;;18.13;10.53;;;;;9.20;97575.00;;;;5057169;28;20501;-87
2022/03/28 07:31:29;;;;;;;17.80;12.27;;;;;9.40;97570.00;;;;5052437;28;20205;-87
2022/03/28 07:34:32;;;;;;;22.17;12.70;;;;;9.70;97569.00;;;;5063448;28;20232;-86
2022/03/28 07:37:22;;;;;;;15.57;10.63;;;;;9.80;97556.00;;;;5055290;28;20706;-86
2022/03/28 07:40:12;;;;;;;19.57;11.93;;;;;9.90;97557.00;;;;5055476;28;20209;-87
2022/03/28 07:43:02;;;;;;;13.73;10.80;;;;;9.90;97541.00;;;;5053684;28;20592;-86
2022/03/28 07:45:53;;;;;;;17.00;11.67;;;;;10.00;97539.00;;;;5056875;28;20208;-86
2022/03/28 07:48:42;;;;;;;17.43;11.70;;;;;10.50;97549.00;;;;5063311;28;20223;-86
2022/03/28 07:51:32;;;;;;;19.27;11.43;;;;;10.60;97543.00;;;;5057271;28;20208;-87
2022/03/28 07:54:21;;;;;;;14.30;10.67;;;;;10.90;97547.00;;;;5058483;28;20223;-87
2022/03/28 07:57:11;;;;;;;14.83;10.70;;;;;11.20;97542.00;;;;5058532;28;20230;-86
2022/03/28 08:00:00;;;;;;;15.50;10.77;;;;;11.20;97540.00;;;;5059312;28;20196;-86
2022/03/28 08:03:09;;;;;;;18.30;12.47;;;;;11.50;97541.00;;;;5062093;28;20334;-87
2022/03/28 08:05:58;;;;;;;14.97;9.17;;;;;11.20;97540.00;;;;5058878;28;20680;-87
2022/03/28 08:08:49;;;;;;;16.37;12.23;;;;;11.70;97539.00;;;;5061703;28;20254;-86
2022/03/28 08:11:38;;;;;;;20.13;10.97;;;;;11.90;97538.00;;;;5056872;28;20208;-87
2022/03/28 08:14:27;;;;;;;17.53;9.73;;;;;12.30;97527.00;;;;5064061;28;20251;-87
2022/03/28 08:17:16;;;;;;;18.17;10.97;;;;;12.80;97533.00;;;;5061097;28;20202;-84
2022/03/28 08:20:09;;;;;;;16.43;9.50;;;;;12.50;97527.00;;;;5062202;28;20196;-86
2022/03/28 08:23:00;;;;;;;13.43;9.47;;;;;12.90;97526.00;;;;5064212;28;20220;-86
2022/03/28 08:25:51;;;;;;;17.10;9.97;;;;;13.10;97519.00;;;;5064885;28;20212;-87
2022/03/28 08:28:40;;;;;;;16.50;11.07;;;;;13.40;97532.00;;;;5054178;28;20219;-86
2022/03/28 08:31:29;;;;;;;15.23;9.07;;;;;13.60;97516.00;;;;5057481;28;20226;-86
2022/03/28 08:34:19;;;;;;;13.27;9.13;;;;;13.80;97520.00;;;;5060632;28;20279;-86
2022/03/28 08:37:09;;;;;;;16.20;10.00;;;;;13.70;97512.00;;;;5059325;28;20207;-84
2022/03/28 08:39:58;;;;;;;16.10;9.77;;;;;14.20;97515.00;;;;5064652;28;20210;-84
2022/03/28 08:42:49;;;;;;;14.77;10.53;;;;;14.70;97510.00;;;;5053882;28;20229;-84
2022/03/28 08:45:39;;;;;;;13.33;9.37;;;;;14.90;97504.00;;;;5060556;28;20232;-84
2022/03/28 08:48:28;;;;;;;10.73;8.47;;;;;15.20;97498.00;;;;5061163;28;20209;-84
2022/03/28 08:51:18;;;;;;;11.53;9.33;;;;;15.30;97501.00;;;;5060123;28;20566;-84
2022/03/28 08:54:07;;;;;;;13.67;10.20;;;;;15.80;97499.00;;;;5063283;28;20227;-86
2022/03/28 08:56:56;;;;;;;12.87;9.57;;;14.80;77.40;16.10;97495.00;;;;5059560;28;20208;-84
2022/03/28 08:59:46;;;;;;;13.93;8.60;;;14.80;76.40;16.10;97495.00;;;;5055177;28;20208;-84
2022/03/28 09:02:41;;;;;;;14.03;8.43;;;15.00;74.80;16.40;97496.00;;;;5060456;28;20197;-84
2022/03/28 09:05:33;;;;;;;12.17;9.23;;;15.20;73.80;16.50;97493.00;;;;5060909;28;20215;-84
2022/03/28 09:08:25;;;;;;;14.23;9.20;;;15.40;72.90;16.70;97485.00;;;;5057875;28;20226;-84
2022/03/28 09:11:21;;;;;;;14.77;8.20;;;15.50;71.80;17.10;97493.00;;;;5059672;28;20232;-87
2022/03/28 09:14:13;;;;;;;11.20;9.03;;;15.80;71.10;16.90;97489.00;;;;5055867;28;20231;-85
2022/03/28 09:17:10;;;;;;;14.17;9.63;;;15.90;68.20;17.40;97488.00;;;;5053571;28;20213;-84
2022/03/28 09:20:03;;;;;;;11.60;8.57;;;16.10;68.20;17.40;97481.00;;;;5061327;28;20685;-85
2022/03/28 09:22:55;;;;;;;12.87;8.87;;;16.30;66.70;17.40;97482.00;;;;5062749;28;20686;-84
2022/03/28 09:25:52;;;;;;;10.80;8.50;;;16.40;65.00;17.80;97480.00;;;;5053903;28;20200;-85
2022/03/28 09:28:47;;;;;;;10.50;7.87;;;16.60;64.80;18.20;97476.00;;;;5062230;28;20666;-85
2022/03/28 09:31:39;;;;;;;11.07;8.53;;;16.80;65.70;17.80;97460.00;;;;5053940;28;20266;-85
2022/03/28 09:34:29;;;;;;;11.43;8.73;;;16.90;62.50;18.30;97465.00;;;;5058316;28;20224;-84
2022/03/28 09:37:18;;;;;;;9.30;8.03;;;17.00;62.90;18.80;97468.00;;;;5053262;28;20208;-85
2022/03/28 09:40:30;;;;;;;9.60;7.90;;;17.30;62.40;18.60;97466.00;;;;5061806;28;20702;-87
2022/03/28 09:43:23;;;;;;;9.23;8.33;;;17.50;59.30;18.80;97452.00;;;;5072063;28;20238;-86
2022/03/28 09:46:26;;;;;;;14.67;8.70;;;17.60;59.70;19.30;97452.00;;;;5073305;28;20208;-86
2022/03/28 09:49:25;;;;;;;12.53;9.20;;;17.80;59.60;19.30;97448.00;;;;5072482;28;20212;-87
2022/03/28 09:52:18;;;;;;;13.53;8.30;;;18.00;58.50;19.90;97445.00;;;;5069683;28;20567;-86
2022/03/28 09:55:09;;;;;;;14.07;8.63;;;18.20;58.00;19.50;97436.00;;;;5070736;28;20217;-84
2022/03/28 09:57:58;;;;;;;9.70;8.20;;;18.40;57.00;19.10;97437.00;;;;5059291;28;20705;-85
2022/03/28 10:00:49;;;;;;;14.60;9.13;;;18.50;55.70;19.40;97432.00;;;;5064665;28;20208;-83
2022/03/28 10:03:38;;;;;;;10.30;8.40;;;18.60;55.40;19.70;97425.00;;;;5068657;28;20219;-86
2022/03/28 10:06:27;;;;;;;11.47;8.47;;;18.70;55.40;20.50;97427.00;;;;5060787;28;20215;-86
2022/03/28 10:09:18;;;;;;;11.80;8.07;;;18.90;55.30;20.10;97413.00;;;;5074323;28;20218;-85
2022/03/28 10:12:08;;;;;;;12.77;8.50;;;19.10;54.30;19.50;97397.00;;;;5070540;28;20204;-85
2022/03/28 10:15:00;;;;;;;11.23;8.80;;;19.10;52.60;20.80;97407.00;;;;5070772;28;20701;-84
2022/03/28 10:17:49;;;;;;;11.37;8.97;;;19.20;53.80;21.20;97403.00;;;;5067285;28;20220;-85
2022/03/28 10:20:54;;;;;;;12.37;9.23;;;19.50;53.10;20.90;97392.00;;;;5066239;28;20240;-82
2022/03/28 10:23:51;;;;;;;11.07;8.90;;;19.70;52.70;20.90;97385.00;;;;5062724;28;20231;-81
2022/03/28 10:26:47;;;;;;;15.03;9.60;;;19.90;51.00;21.10;97387.00;;;;5063650;28;20787;-82
2022/03/28 10:29:38;;;;;;;15.70;8.37;;;20.10;51.60;21.70;97376.00;;;;5064059;28;20650;-83
2022/03/28 10:32:31;;;;;;;13.60;9.43;;;20.20;51.60;22.40;97367.00;;;;5065966;28;20200;-81
2022/03/28 10:35:19;;;;;;;11.70;9.17;;;20.40;51.10;21.40;97365.00;;;;5070164;28;20192;-82
2022/03/28 10:38:16;;;;;;;9.43;8.43;;;20.60;50.90;22.20;97355.00;;;;5078585;28;20203;-79
2022/03/28 10:41:06;;;;;;;13.70;9.50;;;20.60;50.90;22.50;97345.00;;;;5074870;28;20208;-79
2022/03/28 10:44:05;;;;;;;15.27;8.90;;;20.80;50.00;21.40;97342.00;;;;5076427;28;20219;-78
2022/03/28 10:47:06;;;;;;;13.27;10.60;;;20.90;48.70;22.20;97341.00;;;;5061613;28;20441;-82
2022/03/28 10:49:55;;;;;;;15.30;10.73;;;21.00;48.50;23.00;97334.00;;;;5072607;28;20231;-81
2022/03/28 10:53:07;;;;;;;11.33;9.60;;;21.20;48.00;23.30;97323.00;;;;5072407;28;20216;-81
2022/03/28 10:56:00;;;;;;;12.90;11.17;;;21.50;47.90;23.70;97323.00;;;;5076362;28;20211;-81
2022/03/28 10:58:52;;;;;;;12.53;9.37;;;21.80;48.40;24.00;97318.00;;;;5069810;28;20195;-83
2022/03/28 11:01:44;;;;;;;12.30;10.13;;;22.10;47.80;24.20;97315.00;;;;5070063;28;20215;-81
2022/03/28 11:04:48;;;;;;;13.80;9.97;;;22.40;46.60;24.40;97303.00;;;;5071107;28;20223;-79
2022/03/28 11:07:36;;;;;;;17.70;10.13;;;22.60;45.70;24.40;97296.00;;;;5063137;28;20200;-83
2022/03/28 11:10:26;;;;;;;13.93;11.33;;;22.90;45.60;24.60;97283.00;;;;5063127;28;20217;-80
2022/03/28 11:13:17;;;;;;;16.00;10.53;;;23.10;46.70;24.60;97282.00;;;;5070371;28;20225;-80
2022/03/28 11:16:18;;;;;;;17.33;10.90;;;23.40;46.60;25.10;97277.00;;;;5066268;28;20287;-80
2022/03/28 11:19:29;;;;;;;13.50;10.43;;;23.60;45.60;25.10;97275.00;;;;5067841;28;20200;-82
2022/03/28 11:22:18;;;;;;;14.03;10.40;;;23.80;44.70;25.10;97266.00;;;;5069029;28;20207;-84
2022/03/28 11:25:35;;;;;;;18.00;10.93;;;23.90;44.00;25.10;97256.00;;;;5067228;28;20269;-81
2022/03/28 11:28:28;;;;;;;15.67;10.73;;;23.90;43.40;24.30;97261.00;;;;5078075;28;20212;-80
2022/03/28 11:31:18;;;;;;;14.40;10.87;;;23.70;43.20;23.50;97247.00;;;;5082730;28;20231;-82
2022/03/28 11:34:10;;;;;;;14.70;10.27;;;23.60;43.40;23.80;97246.00;;;;5075992;28;20236;-80
2022/03/28 11:37:03;;;;;;;13.33;10.63;;;23.40;42.60;23.20;97241.00;;;;5080771;28;20211;-83
2022/03/28 11:40:00;;;;;;;18.43;10.37;;;23.10;42.80;23.30;97234.00;;;;5083624;28;20200;-84
2022/03/28 11:42:50;;;;;;;11.47;9.83;;;23.00;42.30;24.70;97241.00;;;;5082383;28;20205;-82
2022/03/28 11:45:47;;;;;;;15.60;10.23;;;23.10;42.70;24.80;97219.00;;;;5082579;28;20204;-82
2022/03/28 11:48:36;;;;;;;11.57;10.03;;;23.50;41.60;25.10;97218.00;;;;5077536;28;20199;-81
2022/03/28 11:51:27;;;;;;;12.13;9.80;;;23.70;40.70;24.80;97212.00;;;;5070769;28;20223;-81
2022/03/28 11:54:20;;;;;;;12.47;10.03;;;23.60;40.10;24.40;97203.00;;;;5073203;28;20228;-81
2022/03/28 12:00:21;;;;;;;10.73;9.37;;;24.30;41.70;27.00;97199.00;;;;5073341;28;20209;-84
2022/03/28 12:03:12;;;;;;;14.53;11.27;;;24.80;41.40;24.60;97183.00;;;;5074751;28;20219;-83
2022/03/28 12:06:02;;;;;;;11.73;10.57;;;25.10;40.40;24.70;97178.00;;;;5070225;28;20250;-84
2022/03/28 12:08:51;;;;;;;16.80;11.87;;;25.10;40.00;24.70;97168.00;;;;5080053;28;20217;-81
2022/03/28 12:11:49;;;;;;;11.67;10.20;;;24.90;39.90;26.50;97172.00;;;;5066659;28;20229;-84
2022/03/28 12:14:38;;;;;;;14.67;10.33;;;24.70;41.00;28.00;97167.00;;;;5071224;28;20221;-82
2022/03/28 12:17:27;;;;;;;13.20;10.53;;;25.10;42.00;28.30;97149.00;;;;5070513;28;20671;-80
2022/03/28 12:20:16;;;;;;;14.63;9.77;;;25.80;41.20;29.10;97152.00;;;;5068436;28;20230;-83
2022/03/28 12:23:06;;;;;;;17.08;10.75;;;26.40;41.70;28.40;97148.00;;;;5068753;28;20236;-81
2022/03/28 12:26:03;;;;;;;14.52;10.65;;;27.00;39.50;27.50;97136.00;;;;5070769;28;20217;-80
2022/03/28 12:28:55;;;;;;;13.27;10.07;;;27.20;39.30;29.10;97138.00;;;;5072923;28;20304;-82
2022/03/28 12:31:44;;;;;;;13.35;9.65;;;27.30;39.60;28.50;97139.00;;;;5073039;28;20223;-81
2022/03/28 12:34:34;;;;;;;11.60;10.40;;;27.60;39.20;29.00;97136.00;;;;5072066;28;20234;-80
2022/03/28 12:37:26;;;;;;;11.98;10.15;;;27.60;38.50;28.30;97124.00;;;;5068940;28;20203;-84
2022/03/28 12:40:15;;;;;;;13.02;9.93;;;27.50;38.20;29.00;97120.00;;;;5069384;28;20215;-82
2022/03/28 12:43:04;;;;;;;11.88;9.40;;;27.60;38.80;29.90;97121.00;;;;5076242;28;20234;-82
2022/03/28 12:45:55;;;;;;;10.75;9.20;;;27.80;38.90;29.00;97104.00;;;;5063653;28;20214;-84
2022/03/28 12:48:49;;;;;;;10.45;9.27;;;27.80;38.10;29.40;97099.00;;;;5057406;28;21502;-84
2022/03/28 12:51:40;;;;;;;13.88;10.32;;;27.70;38.00;30.80;97095.00;;;;5063068;28;20228;-82
2022/03/28 12:54:29;;;;;;;11.20;9.40;;;27.90;38.80;29.60;97088.00;;;;5062862;28;20226;-83
2022/03/28 12:57:27;;;;;;;13.10;10.93;;;28.20;38.00;29.20;97092.00;;;;5056750;28;20215;-83
2022/03/28 13:00:25;;;;;;;14.88;10.68;;;28.30;37.80;28.80;97084.00;;;;5064341;28;20594;-85
2022/03/28 13:03:32;;;;;;;11.27;10.13;;;28.20;37.90;29.20;97086.00;;;;5062084;28;20231;-83
2022/03/28 13:06:21;;;;;;;14.55;10.57;;;28.30;37.30;28.40;97080.00;;;;5068797;28;20196;-83
2022/03/28 13:09:11;;;;;;;13.82;9.90;;;27.90;37.60;30.00;97076.00;;;;5059996;28;20336;-81
2022/03/28 13:12:09;;;;;;;14.45;10.88;;;27.90;38.20;29.50;97064.00;;;;5091011;28;20222;-82
2022/03/28 13:15:00;;;;;;;22.95;11.15;;;27.90;37.20;30.30;97061.00;;;;5075488;28;20221;-81
2022/03/28 13:18:04;;;;;;;11.38;10.05;;;28.00;37.70;28.70;97056.00;;;;5074002;28;20211;-82
2022/03/28 13:20:57;;;;;;;12.77;9.77;;;28.40;36.60;28.80;97045.00;;;;5080662;28;20319;-81
2022/03/28 13:23:47;;;;;;;14.07;11.30;;;28.30;36.80;28.90;97050.00;;;;5087755;28;20237;-80
2022/03/28 13:26:42;;;;;;;11.75;10.10;;;28.40;37.10;28.90;97047.00;;;;5093549;28;20502;-79
2022/03/28 13:29:33;;;;;;;12.95;10.00;;;28.40;37.30;29.90;97043.00;;;;5094937;28;20207;-82
2022/03/28 13:32:22;;;;;;;11.90;10.57;;;28.30;37.00;29.80;97039.00;;;;5093638;28;20226;-81
2022/03/28 13:35:12;;;;;;;14.30;10.05;;;28.40;36.80;30.50;97033.00;;;;5094977;28;20205;-80
2022/03/28 13:38:06;;;;;;;11.82;10.00;;;28.60;37.50;30.90;97024.00;;;;5089391;28;20195;-80